Time;durP1;ratioP1;P1;durP2;ratioP2;P2;SDS_P1;SDS_P2;PMS_P1;PMS_P2;Temp;Humidity;BMP_temperature;BMP_pressure;BME280_temperature;BME280_humidity;BME280_pressure;Samples;Min_cycle;Max_cycle;Signal;HPM_P1;HPM_P2
2022/01/05 00:01:18;;;;;;;5.17;3.27;;;2.80;99.90;;;;;;5014131;28;20179;-77
2022/01/05 00:03:44;;;;;;;2.53;2.10;;;2.70;99.90;;;;;;5013140;28;20187;-77
2022/01/05 00:06:10;;;;;;;6.77;2.60;;;2.70;99.90;;;;;;5014121;28;20268;-77
2022/01/05 00:08:35;;;;;;;8.07;2.50;;;2.60;99.90;;;;;;5013816;28;20665;-77
2022/01/05 00:11:01;;;;;;;5.80;2.40;;;2.70;99.90;;;;;;5012963;28;20543;-77
2022/01/05 00:13:27;;;;;;;3.10;1.47;;;2.60;99.90;;;;;;5014064;28;20200;-76
2022/01/05 00:15:52;;;;;;;1.10;1.00;;;2.60;99.90;;;;;;5014410;28;20425;-76
2022/01/05 00:18:18;;;;;;;5.87;1.47;;;2.40;99.90;;;;;;5013629;28;20679;-76
2022/01/05 00:20:44;;;;;;;6.30;1.67;;;2.30;99.90;;;;;;5013940;28;20229;-76
2022/01/05 00:23:10;;;;;;;7.63;1.77;;;2.30;99.90;;;;;;5012729;28;20182;-76
2022/01/05 00:25:35;;;;;;;7.10;2.50;;;2.30;99.90;;;;;;5012455;28;20512;-77
2022/01/05 00:28:02;;;;;;;5.00;1.60;;;2.20;99.90;;;;;;5013425;28;20463;-76
2022/01/05 00:30:27;;;;;;;3.13;1.90;;;2.00;99.90;;;;;;5014101;28;20182;-76
2022/01/05 00:32:53;;;;;;;6.03;2.23;;;2.00;99.90;;;;;;5013796;28;20214;-76
2022/01/05 00:35:18;;;;;;;8.10;3.30;;;1.90;99.90;;;;;;5013603;28;20228;-77
2022/01/05 00:37:44;;;;;;;5.57;2.03;;;1.90;99.90;;;;;;5012916;28;20194;-77
2022/01/05 00:40:10;;;;;;;5.30;2.80;;;2.00;99.90;;;;;;5012404;28;20234;-76
2022/01/05 00:42:36;;;;;;;9.57;2.65;;;1.90;99.90;;;;;;5013531;28;20195;-76
2022/01/05 00:45:03;;;;;;;4.73;1.83;;;1.90;99.90;;;;;;5013582;28;20649;-76
2022/01/05 00:47:28;;;;;;;5.38;3.05;;;1.90;99.90;;;;;;5013250;28;20549;-76
2022/01/05 00:49:54;;;;;;;7.43;3.00;;;1.90;99.90;;;;;;5013422;28;20195;-77
2022/01/05 00:52:20;;;;;;;3.60;3.10;;;1.90;99.90;;;;;;5013363;28;20193;-77
2022/01/05 00:54:46;;;;;;;3.13;2.00;;;2.00;99.90;;;;;;5013343;28;20417;-76
2022/01/05 00:57:11;;;;;;;4.30;3.27;;;2.10;99.90;;;;;;5013367;28;20783;-76
2022/01/05 00:59:37;;;;;;;11.00;3.73;;;2.10;99.90;;;;;;5013046;28;20201;-76
2022/01/05 01:02:03;;;;;;;4.97;3.40;;;2.10;99.90;;;;;;5013335;28;20239;-76
2022/01/05 01:04:29;;;;;;;9.53;4.63;;;2.10;99.90;;;;;;5013468;28;20190;-75
2022/01/05 01:06:54;;;;;;;7.13;4.10;;;2.20;99.90;;;;;;5013351;28;20482;-76
2022/01/05 01:09:20;;;;;;;5.00;3.40;;;2.20;99.90;;;;;;5011819;28;20214;-76
2022/01/05 01:11:46;;;;;;;8.00;4.20;;;2.20;99.90;;;;;;5013486;28;20925;-75
2022/01/05 01:14:12;;;;;;;8.60;3.90;;;2.20;99.90;;;;;;5017490;28;20233;-76
2022/01/05 01:16:38;;;;;;;5.47;2.93;;;2.20;99.90;;;;;;5017369;28;20425;-76
2022/01/05 01:19:03;;;;;;;6.00;2.97;;;2.20;99.90;;;;;;5016878;28;20207;-76
2022/01/05 01:21:29;;;;;;;5.50;4.10;;;2.30;99.90;;;;;;5017264;28;20256;-75
2022/01/05 01:23:55;;;;;;;7.10;3.70;;;2.30;99.90;;;;;;5017100;28;20570;-76
2022/01/05 01:26:24;;;;;;;7.60;4.35;;;2.30;99.90;;;;;;5017073;28;20172;-75
2022/01/05 01:28:50;;;;;;;9.02;4.45;;;2.30;99.90;;;;;;5016758;28;20243;-76
2022/01/05 01:31:16;;;;;;;6.13;4.50;;;2.40;99.90;;;;;;5015799;28;20192;-76
2022/01/05 01:33:42;;;;;;;5.33;4.20;;;2.40;99.90;;;;;;5016906;28;20211;-76
2022/01/05 01:36:07;;;;;;;8.80;5.03;;;2.30;99.90;;;;;;5016738;28;20462;-75
2022/01/05 01:38:33;;;;;;;6.07;4.90;;;2.40;99.90;;;;;;5015139;28;20259;-76
2022/01/05 01:40:58;;;;;;;7.70;5.10;;;2.40;99.90;;;;;;5016803;28;20229;-76
2022/01/05 01:43:24;;;;;;;8.40;5.17;;;2.40;99.90;;;;;;5016818;28;20190;-76
2022/01/05 01:45:50;;;;;;;11.90;5.53;;;2.40;99.90;;;;;;5016878;28;20272;-76
2022/01/05 01:48:15;;;;;;;10.20;5.70;;;2.30;99.90;;;;;;5016147;28;20208;-76
2022/01/05 01:50:41;;;;;;;8.80;6.37;;;2.30;99.90;;;;;;5016651;28;20182;-75
2022/01/05 01:53:06;;;;;;;13.40;7.10;;;2.40;99.90;;;;;;5016660;28;20590;-76
2022/01/05 01:55:34;;;;;;;12.27;7.23;;;2.40;99.90;;;;;;5016749;28;20268;-75
2022/01/05 01:58:01;;;;;;;13.23;8.35;;;2.40;99.90;;;;;;5016173;28;20607;-75
2022/01/05 02:00:29;;;;;;;13.15;7.50;;;2.40;99.90;;;;;;5016562;28;20185;-75
2022/01/05 02:02:55;;;;;;;14.50;9.07;;;2.40;99.90;;;;;;5016629;28;20178;-75
2022/01/05 02:05:21;;;;;;;19.75;9.73;;;2.60;99.90;;;;;;5016746;28;20612;-75
2022/01/05 02:07:46;;;;;;;12.83;8.90;;;2.60;99.90;;;;;;5015979;28;20180;-75
2022/01/05 02:10:12;;;;;;;16.27;10.10;;;2.50;99.90;;;;;;5015140;28;20432;-75
2022/01/05 02:12:38;;;;;;;13.67;8.77;;;2.60;99.90;;;;;;5016094;28;20206;-75
2022/01/05 02:15:04;;;;;;;14.00;8.90;;;2.60;99.90;;;;;;5016328;28;20183;-75
2022/01/05 02:17:49;;;;;;;13.15;8.40;;;2.60;99.90;;;;;;5014670;28;20183;-75
2022/01/05 02:20:18;;;;;;;13.48;9.43;;;2.60;99.90;;;;;;5015307;28;20522;-75
2022/01/05 02:22:45;;;;;;;14.18;9.38;;;2.60;99.90;;;;;;5015824;28;20184;-76
2022/01/05 02:25:10;;;;;;;18.33;11.02;;;2.60;99.90;;;;;;5014855;28;20213;-75
2022/01/05 02:27:40;;;;;;;39.87;12.27;;;2.50;99.90;;;;;;5015822;28;20218;-75
2022/01/05 02:30:07;;;;;;;16.38;11.07;;;2.50;99.90;;;;;;5014647;28;20421;-75
2022/01/05 02:32:33;;;;;;;10.57;7.47;;;2.60;99.90;;;;;;5015671;28;20222;-75
2022/01/05 02:34:58;;;;;;;15.77;9.67;;;2.50;99.90;;;;;;5015828;28;20189;-75
2022/01/05 02:37:24;;;;;;;16.83;9.87;;;2.40;99.90;;;;;;5015646;28;20669;-75
2022/01/05 02:39:50;;;;;;;14.10;10.47;;;2.30;99.90;;;;;;5015709;28;20320;-76
2022/01/05 02:42:26;;;;;;;14.70;10.80;;;2.30;99.90;;;;;;5014538;28;20183;-75
2022/01/05 02:44:52;;;;;;;31.15;11.40;;;2.30;99.90;;;;;;5015546;28;20299;-75
2022/01/05 02:47:17;;;;;;;13.77;8.90;;;2.40;99.90;;;;;;5015539;28;20271;-75
2022/01/05 02:49:43;;;;;;;20.70;8.87;;;2.30;99.90;;;;;;5015362;28;20214;-75
2022/01/05 02:52:08;;;;;;;19.37;9.80;;;2.30;99.90;;;;;;5015493;28;20206;-75
2022/01/05 02:54:34;;;;;;;16.43;9.80;;;2.20;99.90;;;;;;5015683;28;20515;-75
2022/01/05 02:57:00;;;;;;;14.80;8.83;;;2.30;99.90;;;;;;5015483;28;20208;-75
2022/01/05 02:59:25;;;;;;;16.00;8.77;;;2.20;99.90;;;;;;5015043;28;20200;-75
2022/01/05 03:01:51;;;;;;;13.83;9.90;;;2.20;99.90;;;;;;5014394;28;20235;-76
2022/01/05 03:04:16;;;;;;;15.03;8.53;;;2.20;99.90;;;;;;5015331;28;20213;-76
2022/01/05 03:06:42;;;;;;;14.60;8.97;;;2.20;99.90;;;;;;5015224;28;20226;-76
2022/01/05 03:09:07;;;;;;;19.50;9.17;;;2.10;99.90;;;;;;5014908;28;20252;-75
2022/01/05 03:11:33;;;;;;;24.70;10.57;;;2.20;99.90;;;;;;5015320;28;20192;-74
2022/01/05 03:13:59;;;;;;;27.03;10.40;;;2.10;99.90;;;;;;5015346;28;20191;-75
2022/01/05 03:16:24;;;;;;;19.97;9.90;;;2.20;99.90;;;;;;5015115;28;20277;-75
2022/01/05 03:18:50;;;;;;;15.77;10.60;;;2.20;99.90;;;;;;5014495;28;20210;-75
2022/01/05 03:21:15;;;;;;;20.33;10.43;;;2.10;99.90;;;;;;5015049;28;20264;-75
2022/01/05 03:23:45;;;;;;;16.17;10.27;;;2.00;99.90;;;;;;5013770;28;20651;-75
2022/01/05 03:26:10;;;;;;;22.80;11.32;;;2.10;99.90;;;;;;5013734;28;20210;-75
2022/01/05 03:28:36;;;;;;;32.73;10.10;;;2.00;99.90;;;;;;5014462;28;20205;-74
2022/01/05 03:31:02;;;;;;;19.20;8.60;;;2.00;99.90;;;;;;5013381;28;20280;-75
2022/01/05 03:33:27;;;;;;;28.73;9.30;;;2.00;99.90;;;;;;5014694;28;20200;-76
2022/01/05 03:35:53;;;;;;;14.47;8.90;;;2.00;99.90;;;;;;5014254;28;20528;-75
2022/01/05 03:38:19;;;;;;;24.13;9.37;;;2.00;99.90;;;;;;5012973;28;20733;-76
2022/01/05 03:40:46;;;;;;;19.83;10.52;;;2.00;99.90;;;;;;5013474;28;20187;-76
2022/01/05 03:43:12;;;;;;;17.08;9.98;;;1.90;99.90;;;;;;5014272;28;20192;-75
2022/01/05 03:45:38;;;;;;;22.00;9.90;;;2.00;99.90;;;;;;5014449;28;20264;-75
2022/01/05 03:48:06;;;;;;;16.73;9.43;;;1.80;99.90;;;;;;5014166;28;20437;-76
2022/01/05 03:50:32;;;;;;;20.98;8.18;;;1.80;99.90;;;;;;5014472;28;20683;-75
2022/01/05 03:52:58;;;;;;;18.63;8.93;;;1.70;99.90;;;;;;5014426;28;20201;-76
2022/01/05 03:55:23;;;;;;;23.37;9.73;;;1.70;99.90;;;;;;5012944;28;20515;-77
2022/01/05 03:57:49;;;;;;;18.90;8.83;;;1.70;99.90;;;;;;5013956;28;20175;-76
2022/01/05 04:00:15;;;;;;;14.43;8.53;;;1.70;99.90;;;;;;5013302;28;20577;-76
2022/01/05 04:02:41;;;;;;;13.38;8.73;;;1.60;99.90;;;;;;5014463;28;20544;-76
2022/01/05 04:05:08;;;;;;;20.77;8.07;;;1.60;99.90;;;;;;5014211;28;20177;-77
2022/01/05 04:07:33;;;;;;;14.55;7.57;;;1.60;99.90;;;;;;5013789;28;20175;-76
2022/01/05 04:09:59;;;;;;;17.57;8.33;;;1.70;99.90;;;;;;5014343;28;20216;-77
2022/01/05 04:12:24;;;;;;;19.67;7.87;;;1.60;99.90;;;;;;5014119;28;20210;-77
2022/01/05 04:14:50;;;;;;;19.07;7.87;;;1.50;99.90;;;;;;5014016;28;20433;-76
2022/01/05 04:17:16;;;;;;;15.40;7.20;;;1.60;99.90;;;;;;5013960;28;20183;-76
2022/01/05 04:19:41;;;;;;;12.93;6.07;;;1.60;99.90;;;;;;5012253;28;20202;-76
2022/01/05 04:22:07;;;;;;;11.37;5.93;;;1.50;99.90;;;;;;5013920;28;20193;-76
2022/01/05 04:24:32;;;;;;;9.63;5.77;;;1.60;99.90;;;;;;5013893;28;20205;-76
2022/01/05 04:26:58;;;;;;;16.00;5.83;;;1.40;99.90;;;;;;5013911;28;20690;-75
2022/01/05 04:29:24;;;;;;;17.10;4.97;;;1.50;99.90;;;;;;5012106;28;20217;-75
2022/01/05 04:31:50;;;;;;;19.23;5.80;;;1.50;99.90;;;;;;5012531;28;20230;-76
2022/01/05 04:34:15;;;;;;;10.40;4.95;;;1.50;99.90;;;;;;5013824;28;20167;-76
2022/01/05 04:36:41;;;;;;;16.30;5.77;;;1.40;99.90;;;;;;5013514;28;20181;-76
2022/01/05 04:39:07;;;;;;;10.57;4.80;;;1.50;99.90;;;;;;5013352;28;20217;-76
2022/01/05 04:41:32;;;;;;;12.03;4.87;;;1.50;99.90;;;;;;5013451;28;20648;-76
2022/01/05 04:43:58;;;;;;;8.40;4.70;;;1.50;99.90;;;;;;5013501;28;20692;-76
2022/01/05 04:46:24;;;;;;;18.87;5.93;;;1.50;99.90;;;;;;5012777;28;20188;-76
2022/01/05 04:48:49;;;;;;;15.83;4.23;;;1.50;99.90;;;;;;5013120;28;20225;-75
2022/01/05 04:51:15;;;;;;;13.23;5.33;;;1.60;99.90;;;;;;5013498;28;20563;-76
2022/01/05 04:53:40;;;;;;;15.50;4.90;;;1.50;99.90;;;;;;5013216;28;20226;-76
2022/01/05 04:56:06;;;;;;;23.10;5.53;;;1.50;99.90;;;;;;5013457;28;20223;-76
2022/01/05 04:58:31;;;;;;;13.27;4.80;;;1.40;99.90;;;;;;5013003;28;20201;-76
2022/01/05 05:00:57;;;;;;;16.27;5.33;;;1.50;99.90;;;;;;5013396;28;20235;-76
2022/01/05 05:03:23;;;;;;;9.73;4.33;;;1.40;99.90;;;;;;5013758;28;20183;-76
2022/01/05 05:05:48;;;;;;;10.37;5.10;;;1.50;99.90;;;;;;5013184;28;20208;-76
2022/01/05 05:08:14;;;;;;;15.50;3.83;;;1.50;99.90;;;;;;5012964;28;20713;-76
2022/01/05 05:10:39;;;;;;;22.23;4.47;;;1.40;99.90;;;;;;5013205;28;20612;-76
2022/01/05 05:13:10;;;;;;;10.00;4.03;;;1.40;99.90;;;;;;4995728;28;20211;-76
2022/01/05 05:15:36;;;;;;;6.03;4.10;;;1.40;99.90;;;;;;5013452;28;20168;-76
2022/01/05 05:18:02;;;;;;;13.35;4.20;;;1.30;99.90;;;;;;5011625;28;20223;-76
2022/01/05 05:20:28;;;;;;;8.02;3.97;;;1.40;99.90;;;;;;5012236;28;20660;-76
2022/01/05 05:22:54;;;;;;;16.50;4.63;;;1.30;99.90;;;;;;5013401;28;20186;-76
2022/01/05 05:25:19;;;;;;;21.73;4.90;;;1.40;99.90;;;;;;5013180;28;20180;-76
2022/01/05 05:27:45;;;;;;;15.53;4.07;;;1.30;99.90;;;;;;5012634;28;20245;-77
2022/01/05 05:30:11;;;;;;;8.90;4.53;;;1.40;99.90;;;;;;5011869;28;20216;-76
2022/01/05 05:32:37;;;;;;;7.38;3.67;;;1.30;99.90;;;;;;5013434;28;20620;-76
2022/01/05 05:35:02;;;;;;;10.77;3.30;;;1.20;99.90;;;;;;5013058;28;20176;-75
2022/01/05 05:37:28;;;;;;;10.55;3.75;;;1.30;99.90;;;;;;5012570;28;20665;-76
2022/01/05 05:39:54;;;;;;;25.13;4.00;;;1.30;99.90;;;;;;5011622;28;20197;-75
2022/01/05 05:42:19;;;;;;;10.67;3.97;;;1.40;99.90;;;;;;5012815;28;20180;-76
2022/01/05 05:44:45;;;;;;;11.80;3.30;;;1.30;99.90;;;;;;5011741;28;20178;-76
2022/01/05 05:47:11;;;;;;;8.13;3.50;;;1.40;99.90;;;;;;5013036;28;20646;-76
2022/01/05 05:49:37;;;;;;;17.17;3.53;;;1.30;99.90;;;;;;5011161;28;20209;-76
2022/01/05 05:52:03;;;;;;;15.60;3.60;;;1.30;99.90;;;;;;5012711;28;20211;-77
2022/01/05 05:54:28;;;;;;;11.63;3.10;;;1.30;99.90;;;;;;5011556;28;20183;-76
2022/01/05 05:56:54;;;;;;;12.07;4.30;;;1.20;99.90;;;;;;5012952;28;20413;-77
2022/01/05 05:59:19;;;;;;;11.57;3.90;;;1.20;99.90;;;;;;5015976;28;20533;-77
2022/01/05 06:01:45;;;;;;;20.47;3.43;;;1.30;99.90;;;;;;5016486;28;20190;-76
2022/01/05 06:04:10;;;;;;;14.77;3.77;;;1.30;99.90;;;;;;5015277;28;20195;-78
2022/01/05 06:06:36;;;;;;;13.10;2.33;;;1.40;99.90;;;;;;5015359;28;20219;-77
2022/01/05 06:09:02;;;;;;;4.50;1.77;;;1.30;99.90;;;;;;5014888;28;20205;-77
2022/01/05 06:11:27;;;;;;;14.77;4.57;;;1.30;99.90;;;;;;5016478;28;20241;-77
2022/01/05 06:13:54;;;;;;;12.20;2.60;;;1.30;99.90;;;;;;5016312;28;20611;-77
2022/01/05 06:16:22;;;;;;;13.38;3.33;;;1.40;99.90;;;;;;5015999;28;20174;-77
2022/01/05 06:18:47;;;;;;;9.13;3.47;;;1.40;99.90;;;;;;5015652;28;20193;-77
2022/01/05 06:21:13;;;;;;;8.57;2.50;;;1.50;99.90;;;;;;5016288;28;20186;-77
2022/01/05 06:23:39;;;;;;;8.43;2.57;;;1.50;99.90;;;;;;5016158;28;20185;-78
2022/01/05 06:26:04;;;;;;;8.90;2.10;;;1.50;99.90;;;;;;5016124;28;20718;-80
2022/01/05 06:28:30;;;;;;;15.40;3.00;;;1.50;99.90;;;;;;5015561;28;20210;-80
2022/01/05 06:30:56;;;;;;;14.83;2.90;;;1.60;99.90;;;;;;5016050;28;20183;-79
2022/01/05 06:33:21;;;;;;;6.90;2.63;;;1.60;99.90;;;;;;5015886;28;20268;-77
2022/01/05 06:35:47;;;;;;;19.30;3.10;;;1.60;99.90;;;;;;5015980;28;20180;-77
2022/01/05 06:38:13;;;;;;;18.43;3.67;;;1.60;99.90;;;;;;5013996;28;20294;-77
2022/01/05 06:40:38;;;;;;;13.93;3.20;;;1.70;99.90;;;;;;5015643;28;20239;-77
2022/01/05 06:43:04;;;;;;;11.73;3.70;;;1.70;99.90;;;;;;5015796;28;20174;-76
2022/01/05 06:45:30;;;;;;;18.63;3.87;;;1.80;99.90;;;;;;5014656;28;20180;-77
2022/01/05 06:47:56;;;;;;;12.43;2.30;;;1.90;99.90;;;;;;5015369;28;20175;-77
2022/01/05 06:50:22;;;;;;;12.90;2.97;;;1.90;99.90;;;;;;5015596;28;20501;-77
2022/01/05 06:52:47;;;;;;;13.73;2.70;;;1.80;99.90;;;;;;5014220;28;20481;-76
2022/01/05 06:55:13;;;;;;;8.77;2.10;;;1.80;99.90;;;;;;5015365;28;20519;-77
2022/01/05 06:57:41;;;;;;;10.83;2.90;;;1.80;99.90;;;;;;5014994;28;20625;-76
2022/01/05 07:00:08;;;;;;;9.38;2.40;;;1.90;99.90;;;;;;5015715;28;20175;-77
2022/01/05 07:02:34;;;;;;;8.90;2.40;;;1.80;99.90;;;;;;5015416;28;20179;-76
2022/01/05 07:04:59;;;;;;;8.77;4.07;;;1.90;99.90;;;;;;5015667;28;20209;-77
2022/01/05 07:07:25;;;;;;;12.20;2.80;;;2.00;99.90;;;;;;5013782;28;20192;-78
2022/01/05 07:09:51;;;;;;;17.03;3.10;;;2.00;99.90;;;;;;5014408;28;20252;-76
2022/01/05 07:12:16;;;;;;;13.83;2.53;;;2.00;99.90;;;;;;5015177;28;20202;-76
2022/01/05 07:14:42;;;;;;;22.83;4.20;;;2.10;99.90;;;;;;5015003;28;20189;-76
2022/01/05 07:17:07;;;;;;;10.53;3.50;;;2.00;99.90;;;;;;5015069;28;20516;-76
2022/01/05 07:19:33;;;;;;;7.77;3.10;;;2.10;99.90;;;;;;5014749;28;20630;-76
2022/01/05 07:21:58;;;;;;;13.63;2.60;;;2.00;99.90;;;;;;5013820;28;20598;-77
2022/01/05 07:24:24;;;;;;;9.37;4.00;;;2.00;99.90;;;;;;5015081;28;20210;-77
2022/01/05 07:26:50;;;;;;;21.67;4.17;;;2.00;99.90;;;;;;5013693;28;20176;-77
2022/01/05 07:29:17;;;;;;;6.90;2.83;;;2.00;99.90;;;;;;5014403;28;20614;-77
2022/01/05 07:31:43;;;;;;;10.95;3.10;;;2.10;99.90;;;;;;5013437;28;20603;-77
2022/01/05 07:34:09;;;;;;;15.53;3.90;;;2.20;99.90;;;;;;5014901;28;20189;-77
2022/01/05 07:36:35;;;;;;;10.15;3.78;;;2.20;99.90;;;;;;5014523;28;20199;-78
2022/01/05 07:39:05;;;;;;;21.65;4.68;;;2.20;99.90;;;;;;5014053;28;20616;-77
2022/01/05 07:41:32;;;;;;;9.27;2.88;;;2.20;99.90;;;;;;5014621;28;20167;-77
2022/01/05 07:43:57;;;;;;;17.13;4.25;;;2.20;99.90;;;;;;5013244;28;20236;-77
2022/01/05 07:46:23;;;;;;;13.50;3.67;;;2.30;99.90;;;;;;5013604;28;20190;-75
2022/01/05 07:48:49;;;;;;;7.17;2.97;;;2.30;99.90;;;;;;5013920;28;20985;-78
2022/01/05 07:51:14;;;;;;;10.57;3.97;;;2.40;99.90;;;;;;5013671;28;20186;-77
2022/01/05 07:53:41;;;;;;;6.50;3.67;;;2.40;99.90;;;;;;5014362;28;20469;-78
2022/01/05 07:56:08;;;;;;;15.68;5.07;;;2.40;99.90;;;;;;5014159;28;20174;-77
2022/01/05 07:58:35;;;;;;;10.50;3.88;;;2.40;99.90;;;;;;5013716;28;20202;-77
2022/01/05 08:01:01;;;;;;;23.10;3.85;;;2.40;99.90;;;;;;5012344;28;20232;-78
2022/01/05 08:03:26;;;;;;;15.70;3.33;;;2.40;99.90;;;;;;5013304;28;20215;-77
2022/01/05 08:05:52;;;;;;;13.03;3.60;;;2.40;99.90;;;;;;5013015;28;20433;-77
2022/01/05 08:08:18;;;;;;;17.23;3.87;;;2.50;99.90;;;;;;5013634;28;20440;-77
2022/01/05 08:10:43;;;;;;;14.80;4.47;;;2.40;99.90;;;;;;5013943;28;20181;-76
2022/01/05 08:13:09;;;;;;;7.90;3.20;;;2.50;99.90;;;;;;5011180;28;20217;-76
2022/01/05 08:15:34;;;;;;;18.83;3.20;;;2.50;99.90;;;;;;5013074;28;20229;-76
2022/01/05 08:18:00;;;;;;;8.23;3.00;;;2.50;99.90;;;;;;4979816;28;20540;-77
2022/01/05 08:20:26;;;;;;;10.10;3.10;;;2.50;99.90;;;;;;5012789;28;20262;-77
2022/01/05 08:22:51;;;;;;;9.30;4.67;;;2.50;99.90;;;;;;5014036;28;20274;-76
2022/01/05 08:25:20;;;;;;;19.90;4.17;;;2.50;99.90;;;;;;5013782;28;20597;-77
2022/01/05 08:27:46;;;;;;;11.18;3.97;;;2.60;99.90;;;;;;5013507;28;20202;-76
2022/01/05 08:30:17;;;;;;;15.23;3.20;;;2.60;99.90;;;;;;5012281;28;20572;-76
2022/01/05 08:32:44;;;;;;;14.48;4.10;;;2.60;99.90;;;;;;5013710;28;20249;-76
2022/01/05 08:35:11;;;;;;;11.77;4.35;;;2.70;99.90;;;;;;5013808;28;20559;-76
2022/01/05 08:37:38;;;;;;;10.93;3.90;;;2.70;99.90;;;;;;5013218;28;20677;-76
2022/01/05 08:40:05;;;;;;;9.23;3.03;;;2.70;99.90;;;;;;5013558;28;20170;-76
2022/01/05 08:42:30;;;;;;;11.18;3.05;;;2.80;99.90;;;;;;5013779;28;20185;-76
2022/01/05 08:44:58;;;;;;;17.47;4.10;;;2.80;99.90;;;;;;5013420;28;20183;-77
2022/01/05 08:47:23;;;;;;;6.45;3.15;;;2.80;99.90;;;;;;5013779;28;20187;-76
2022/01/05 08:49:49;;;;;;;16.33;3.30;;;2.80;99.90;;;;;;5011330;28;20209;-76
2022/01/05 08:52:14;;;;;;;6.17;2.93;;;2.80;99.90;;;;;;5012804;28;20551;-76
2022/01/05 08:54:40;;;;;;;11.33;4.47;;;2.80;99.90;;;;;;5013127;28;20187;-77
2022/01/05 08:57:06;;;;;;;12.93;3.70;;;2.90;99.90;;;;;;5013453;28;20183;-77
2022/01/05 08:59:32;;;;;;;9.23;3.50;;;2.90;99.90;;;;;;5012913;28;20600;-76
2022/01/05 09:01:57;;;;;;;10.90;3.70;;;2.80;99.90;;;;;;5013422;28;20426;-76
2022/01/05 09:04:23;;;;;;;10.47;3.37;;;2.90;99.90;;;;;;5013357;28;20182;-76
2022/01/05 09:06:48;;;;;;;11.77;3.93;;;3.00;99.90;;;;;;4995774;28;20204;-76
2022/01/05 09:09:14;;;;;;;6.03;3.50;;;3.00;99.90;;;;;;5013011;28;20282;-76
2022/01/05 09:11:40;;;;;;;7.97;2.47;;;3.00;99.90;;;;;;5013194;28;20647;-76
2022/01/05 09:14:05;;;;;;;13.53;3.77;;;3.00;99.90;;;;;;5013279;28;20334;-76
2022/01/05 09:16:32;;;;;;;12.37;3.23;;;3.00;99.90;;;;;;5013470;28;20756;-76
2022/01/05 09:18:58;;;;;;;5.28;2.60;;;3.00;99.90;;;;;;5011596;28;20287;-77
2022/01/05 09:21:24;;;;;;;6.43;2.55;;;3.00;99.90;;;;;;5013333;28;20180;-76
2022/01/05 09:23:50;;;;;;;8.77;2.53;;;3.00;99.90;;;;;;5013006;28;20656;-76
2022/01/05 09:26:16;;;;;;;9.65;3.58;;;3.10;99.90;;;;;;5012335;28;20190;-76
2022/01/05 09:28:44;;;;;;;8.03;2.37;;;3.10;99.90;;;;;;5012977;28;20750;-76
2022/01/05 09:31:11;;;;;;;9.55;3.50;;;3.10;99.90;;;;;;5013381;28;20215;-77
2022/01/05 09:33:36;;;;;;;6.75;2.22;;;3.30;99.90;;;;;;5014524;28;20207;-77
2022/01/05 09:36:10;;;;;;;5.10;2.87;;;3.40;99.90;;;;;;5016970;28;20194;-77
2022/01/05 09:44:07;;;;;;;8.50;4.38;;;3.40;99.90;;;;;;5016887;28;20194;-77
2022/01/05 09:46:50;;;;;;;6.90;2.45;;;3.40;99.90;;;;;;5016790;28;20179;-76
2022/01/05 09:49:27;;;;;;;10.07;2.45;;;3.50;99.90;;;;;;5016437;28;20648;-76
2022/01/05 09:51:55;;;;;;;12.25;4.07;;;3.50;99.90;;;;;;5016659;28;20268;-76
2022/01/05 09:54:22;;;;;;;5.60;2.45;;;3.60;99.90;;;;;;5016749;28;20218;-76
2022/01/05 09:56:49;;;;;;;12.15;3.08;;;3.70;99.90;;;;;;5015393;28;20185;-77
2022/01/05 09:59:16;;;;;;;9.55;3.28;;;3.70;99.90;;;;;;5016187;28;20191;-76
2022/01/05 10:01:42;;;;;;;15.35;3.33;;;3.80;99.90;;;;;;5016720;28;20230;-76
2022/01/05 10:04:08;;;;;;;8.50;2.63;;;3.80;99.90;;;;;;5017013;28;20187;-77
2022/01/05 10:06:38;;;;;;;9.52;4.00;;;3.80;99.90;;;;;;5016428;28;20432;-76
2022/01/05 10:09:04;;;;;;;8.00;2.78;;;3.80;99.90;;;;;;5016196;28;20202;-77
2022/01/05 10:11:30;;;;;;;9.65;3.38;;;3.80;99.90;;;;;;5016247;28;20177;-76
2022/01/05 10:13:56;;;;;;;12.10;3.50;;;3.80;99.90;;;;;;5016513;28;20218;-77
2022/01/05 10:16:21;;;;;;;9.30;3.27;;;3.80;99.90;;;;;;5015170;28;20185;-76
2022/01/05 10:18:47;;;;;;;11.33;2.80;;;3.80;99.90;;;;;;5016026;28;20191;-77
2022/01/05 10:21:14;;;;;;;6.87;2.90;;;3.80;99.90;;;;;;5016222;28;20184;-77
2022/01/05 10:23:48;;;;;;;13.73;2.80;;;3.80;99.90;;;;;;5016320;28;20518;-77
2022/01/05 10:26:34;;;;;;;8.05;3.10;;;3.70;99.90;;;;;;5016069;28;20236;-77
2022/01/05 10:29:01;;;;;;;16.23;3.15;;;3.80;99.90;;;;;;5023987;28;20175;-77
2022/01/05 10:31:31;;;;;;;13.90;3.65;;;3.90;99.90;;;;;;5018630;28;20183;-77
2022/01/05 10:33:58;;;;;;;7.15;2.80;;;4.00;99.90;;;;;;5015772;28;20214;-78
2022/01/05 10:36:41;;;;;;;9.15;2.80;;;4.10;99.90;;;;;;5014686;28;20666;-77
2022/01/05 10:39:06;;;;;;;10.88;3.72;;;4.10;99.90;;;;;;5013918;28;20234;-77
2022/01/05 10:41:37;;;;;;;7.20;3.03;;;4.00;99.90;;;;;;5015423;28;20207;-76
2022/01/05 10:44:10;;;;;;;16.08;3.03;;;4.00;99.90;;;;;;5014567;28;20189;-77
2022/01/05 10:46:39;;;;;;;4.95;2.10;;;4.10;99.90;;;;;;5015643;28;20179;-76
2022/01/05 10:49:05;;;;;;;6.82;2.25;;;4.00;99.90;;;;;;5015277;28;20195;-77
2022/01/05 10:51:32;;;;;;;13.52;3.40;;;3.90;99.90;;;;;;5015710;28;20179;-77
2022/01/05 10:54:15;;;;;;;8.30;2.80;;;3.90;99.90;;;;;;5014209;28;20211;-77
2022/01/05 10:56:42;;;;;;;11.48;3.00;;;4.10;99.90;;;;;;5015467;28;20183;-77
2022/01/05 10:59:08;;;;;;;9.90;3.50;;;4.30;99.90;;;;;;5015081;28;20199;-77
2022/01/05 11:01:34;;;;;;;18.98;3.15;;;4.50;99.90;;;;;;5015488;28;20172;-77
2022/01/05 11:04:18;;;;;;;12.23;3.07;;;4.60;99.90;;;;;;5017599;28;20180;-77
2022/01/05 11:07:03;;;;;;;9.75;3.88;;;4.80;99.90;;;;;;5015443;28;20182;-77
2022/01/05 11:09:32;;;;;;;6.40;2.92;;;5.00;99.90;;;;;;5014761;28;20230;-77
2022/01/05 11:11:58;;;;;;;13.30;3.45;;;5.10;99.90;;;;;;5015235;28;20179;-77
2022/01/05 11:14:33;;;;;;;12.13;3.50;;;4.90;99.90;;;;;;5014464;28;20180;-77
2022/01/05 11:17:03;;;;;;;8.23;3.35;;;4.60;99.90;;;;;;5014011;28;20166;-77
2022/01/05 11:19:36;;;;;;;13.15;4.80;;;4.50;99.90;;;;;;5014558;28;20196;-77
2022/01/05 11:22:14;;;;;;;11.80;4.03;;;4.50;99.90;;;;;;5015113;28;20175;-77
2022/01/05 11:24:45;;;;;;;6.93;3.30;;;4.40;99.90;;;;;;5014992;28;20174;-77
2022/01/05 11:27:28;;;;;;;17.80;5.97;;;4.40;99.90;;;;;;5015166;28;20255;-77
2022/01/05 11:29:55;;;;;;;9.02;3.20;;;4.40;99.90;;;;;;5014922;28;20560;-77
2022/01/05 11:32:25;;;;;;;2.15;1.88;;;4.50;99.90;;;;;;5014924;28;20191;-77
2022/01/05 11:34:51;;;;;;;17.92;4.78;;;4.50;99.90;;;;;;5014877;28;20194;-77
2022/01/05 11:37:18;;;;;;;9.32;3.13;;;4.50;99.90;;;;;;5014591;28;20183;-77
2022/01/05 11:39:46;;;;;;;7.53;3.17;;;4.50;99.90;;;;;;5014532;28;20266;-78
2022/01/05 11:42:15;;;;;;;12.90;4.10;;;4.50;99.90;;;;;;5014654;28;20254;-75
2022/01/05 11:44:54;;;;;;;6.60;3.33;;;4.50;99.90;;;;;;5014565;28;20172;-76
2022/01/05 11:47:30;;;;;;;7.90;2.60;;;4.60;99.90;;;;;;5013511;28;20751;-76
2022/01/05 11:50:14;;;;;;;11.23;3.35;;;4.60;99.90;;;;;;5013216;28;20733;-76
2022/01/05 11:53:01;;;;;;;8.25;3.60;;;4.70;99.90;;;;;;5014356;28;20195;-76
2022/01/05 11:55:30;;;;;;;8.57;3.10;;;4.90;99.90;;;;;;5014044;28;20254;-76
2022/01/05 11:58:17;;;;;;;9.88;3.00;;;5.10;99.90;;;;;;5013979;28;20592;-76
2022/01/05 12:00:44;;;;;;;10.38;3.03;;;5.10;99.90;;;;;;5014074;28;20195;-76
2022/01/05 12:03:09;;;;;;;6.75;4.13;;;5.10;99.90;;;;;;5014161;28;20640;-75
2022/01/05 12:06:06;;;;;;;11.23;5.20;;;5.30;99.90;;;;;;5014303;28;20187;-76
2022/01/05 12:08:43;;;;;;;7.22;3.10;;;5.20;99.90;;;;;;5013801;28;20207;-76
2022/01/05 12:11:27;;;;;;;11.15;4.03;;;5.10;99.90;;;;;;5013838;28;20270;-76
2022/01/05 12:13:52;;;;;;;10.40;4.05;;;5.00;99.90;;;;;;5013973;28;20206;-75
2022/01/05 12:16:18;;;;;;;13.73;4.37;;;4.90;99.90;;;;;;5014105;28;20233;-76
2022/01/05 12:18:43;;;;;;;13.47;4.00;;;4.90;99.90;;;;;;5013591;28;20214;-76
2022/01/05 12:21:47;;;;;;;14.53;3.87;;;4.90;99.90;;;;;;5013860;28;20203;-76
2022/01/05 12:24:14;;;;;;;11.90;3.30;;;4.90;99.90;;;;;;5014063;28;20221;-75
2022/01/05 12:26:40;;;;;;;15.23;3.20;;;4.90;99.90;;;;;;5014123;28;20175;-76
2022/01/05 12:29:07;;;;;;;10.35;4.43;;;4.90;99.90;;;;;;5012213;28;20261;-76
2022/01/05 12:31:47;;;;;;;7.13;3.35;;;5.00;99.90;;;;;;5012327;28;20179;-75
2022/01/05 12:34:34;;;;;;;11.60;3.88;;;5.00;99.90;;;;;;5013488;28;20776;-76
2022/01/05 12:36:59;;;;;;;9.02;3.67;;;5.20;99.90;;;;;;5013837;28;20187;-76
2022/01/05 12:39:48;;;;;;;10.00;3.00;;;5.30;99.90;;;;;;5013121;28;20214;-75
2022/01/05 12:42:23;;;;;;;7.93;2.85;;;5.20;99.90;;;;;;5013753;28;20261;-76
2022/01/05 12:44:49;;;;;;;9.40;3.25;;;5.10;99.90;;;;;;5012390;28;20269;-76
2022/01/05 12:47:16;;;;;;;11.80;3.90;;;5.10;99.90;;;;;;5012347;28;20207;-76
2022/01/05 12:49:42;;;;;;;13.82;2.80;;;5.00;99.90;;;;;;5011923;28;20215;-76
2022/01/05 12:52:14;;;;;;;11.73;3.87;;;5.00;99.90;;;;;;5013515;28;20181;-76
2022/01/05 12:54:53;;;;;;;7.38;3.35;;;5.00;99.90;;;;;;5013515;28;20174;-76
2022/01/05 12:57:22;;;;;;;7.13;3.30;;;5.00;99.90;;;;;;5013321;28;20190;-76